Time;durP1;ratioP1;P1;durP2;ratioP2;P2;SDS_P1;SDS_P2;PMS_P1;PMS_P2;Temp;Humidity;BMP_temperature;BMP_pressure;BME280_temperature;BME280_humidity;BME280_pressure;Samples;Min_cycle;Max_cycle;Signal;HPM_P1;HPM_P2
2024/02/09 00:02:22;;;;;;;35.65;18.55;;;;;;;4.59;70.30;99484.03;5021615;28;20773;-78
2024/02/09 00:04:47;;;;;;;34.92;17.95;;;;;;;4.71;69.00;99484.31;5014274;28;20032;-79
2024/02/09 00:07:13;;;;;;;31.13;16.55;;;;;;;4.64;69.90;99494.06;5017923;28;20402;-79
2024/02/09 00:09:38;;;;;;;32.92;16.25;;;;;;;4.12;71.64;99500.56;5049002;28;20062;-79
2024/02/09 00:12:05;;;;;;;32.28;15.48;;;;;;;4.40;70.08;99472.34;5019693;28;20041;-79
2024/02/09 00:14:32;;;;;;;31.50;17.00;;;;;;;4.72;69.72;99485.97;5017697;28;20037;-80
2024/02/09 00:16:57;;;;;;;28.00;14.40;;;;;;;4.83;70.11;99498.59;5027028;28;20446;-79
2024/02/09 00:19:23;;;;;;;31.30;16.88;;;;;;;4.72;70.14;99490.41;5013703;28;20104;-78
2024/02/09 00:21:48;;;;;;;28.92;13.82;;;;;;;3.95;72.71;99484.22;5022828;28;20488;-80
2024/02/09 00:24:14;;;;;;;28.55;13.80;;;;;;;4.09;70.52;99482.50;5019630;28;20104;-77
2024/02/09 00:26:39;;;;;;;25.52;13.90;;;;;;;3.33;71.88;99478.53;5028688;28;20040;-77
2024/02/09 00:29:04;;;;;;;22.13;11.43;;;;;;;3.25;72.52;99475.19;5027840;28;20033;-78
2024/02/09 00:31:31;;;;;;;22.42;13.02;;;;;;;3.66;73.70;99442.94;5033557;28;20017;-78
2024/02/09 00:33:56;;;;;;;41.60;15.43;;;;;;;4.08;73.29;99465.03;5028841;28;20407;-78
2024/02/09 00:36:22;;;;;;;51.65;20.88;;;;;;;4.06;73.94;99475.75;5027060;28;20486;-79
2024/02/09 00:38:47;;;;;;;29.85;14.95;;;;;;;4.03;74.12;99478.78;5027955;28;20497;-78
2024/02/09 00:41:17;;;;;;;57.88;21.55;;;;;;;3.94;73.76;99457.00;5028511;28;20038;-78
2024/02/09 00:43:42;;;;;;;50.78;20.70;;;;;;;4.32;72.35;99464.59;5028711;28;20034;-79
2024/02/09 00:46:08;;;;;;;55.63;19.40;;;;;;;4.51;71.86;99470.19;5027747;28;20021;-78
2024/02/09 00:48:33;;;;;;;38.30;16.77;;;;;;;4.49;72.43;99466.94;5028086;28;20096;-78
2024/02/09 00:50:59;;;;;;;32.92;14.88;;;;;;;4.25;73.71;99479.56;5026821;28;20041;-78
2024/02/09 00:53:24;;;;;;;30.42;14.52;;;;;;;4.39;72.19;99465.47;5023836;28;20651;-79
2024/02/09 00:55:50;;;;;;;29.23;14.65;;;;;;;3.69;75.19;99438.13;5028093;28;20108;-79
2024/02/09 00:58:15;;;;;;;34.05;15.27;;;;;;;3.45;75.65;99484.13;5026489;28;20057;-77
2024/02/09 01:00:42;;;;;;;33.15;18.65;;;;;;;3.82;75.56;99458.50;5028218;28;20120;-78
2024/02/09 01:03:10;;;;;;;27.88;15.63;;;;;;;4.45;73.15;99478.88;5020375;28;20140;-78
2024/02/09 01:05:35;;;;;;;26.60;13.55;;;;;;;4.34;72.80;99461.75;5025665;28;20037;-78
2024/02/09 01:08:01;;;;;;;32.03;15.45;;;;;;;4.43;72.97;99466.69;5028200;28;20095;-78
2024/02/09 01:10:27;;;;;;;34.13;15.82;;;;;;;4.43;72.40;99445.59;5019884;28;20630;-78
2024/02/09 02:45:50;;;;;;;43.13;21.55;;;;;;;2.13;82.88;99452.47;5030472;28;20119;-79
2024/02/09 03:04:40;;;;;;;41.75;14.32;;;;;;;3.48;74.46;99467.13;5030059;28;20095;-78
2024/02/09 03:07:05;;;;;;;27.20;14.13;;;;;;;3.59;73.87;99464.78;5030282;28;20057;-78
2024/02/09 03:09:30;;;;;;;28.17;14.23;;;;;;;3.44;75.22;99490.41;5030553;28;20040;-78
2024/02/09 03:11:59;;;;;;;31.88;15.88;;;;;;;3.08;75.76;99478.03;5029933;28;20681;-78
2024/02/09 03:14:30;;;;;;;29.60;14.90;;;;;;;2.84;76.97;99462.53;5029634;28;20049;-78
2024/02/09 03:16:55;;;;;;;31.27;14.90;;;;;;;3.33;75.65;99494.34;5030124;28;20044;-79
2024/02/09 03:19:21;;;;;;;32.38;15.65;;;;;;;3.16;75.92;99482.38;5029855;28;20022;-78
2024/02/09 03:21:46;;;;;;;30.58;17.05;;;;;;;2.92;75.48;99460.63;5030523;28;20030;-78
2024/02/09 03:24:11;;;;;;;42.00;19.45;;;;;;;3.15;76.56;99513.19;5030166;28;20068;-79
2024/02/09 03:26:37;;;;;;;30.85;16.67;;;;;;;3.01;76.67;99506.13;5029959;28;20032;-79
2024/02/09 03:29:02;;;;;;;28.50;13.68;;;;;;;2.73;75.82;99485.69;5029380;28;20500;-79
2024/02/09 03:31:31;;;;;;;26.23;14.63;;;;;;;2.72;76.93;99513.03;5029723;28;20026;-78
2024/02/09 03:33:57;;;;;;;28.35;14.90;;;;;;;2.55;76.11;99479.97;5029484;28;20029;-79
2024/02/09 03:36:23;;;;;;;29.02;15.35;;;;;;;1.73;80.22;99488.59;5029886;28;20047;-79
2024/02/09 03:38:49;;;;;;;27.42;14.15;;;;;;;1.59;83.01;99522.56;5029455;28;20029;-79
2024/02/09 03:41:15;;;;;;;37.10;15.40;;;;;;;0.77;81.37;99482.72;5029365;28;20030;-78
2024/02/09 03:43:40;;;;;;;29.58;14.43;;;;;;;1.64;79.43;99515.97;5029202;28;20033;-78
2024/02/09 03:46:05;;;;;;;31.58;14.73;;;;;;;1.35;80.51;99523.50;5028986;28;20088;-78
2024/02/09 03:48:32;;;;;;;28.60;15.02;;;;;;;1.56;80.64;99517.63;5029729;28;20485;-79
2024/02/09 03:50:57;;;;;;;30.27;14.73;;;;;;;1.28;80.17;99491.03;5029524;28;20033;-79
2024/02/09 03:53:22;;;;;;;29.67;14.00;;;;;;;1.18;81.51;99501.75;5029066;28;20144;-79
2024/02/09 03:55:48;;;;;;;30.88;14.63;;;;;;;1.53;81.04;99514.53;5027907;28;20048;-78
2024/02/09 03:58:13;;;;;;;25.15;13.48;;;;;;;1.18;81.60;99480.72;5028931;28;20028;-79
2024/02/09 04:00:39;;;;;;;27.15;14.88;;;;;;;1.26;83.85;99513.22;5029372;28;20025;-79
2024/02/09 04:03:04;;;;;;;28.90;13.77;;;;;;;1.28;82.52;99527.00;5060983;28;20029;-78
2024/02/09 04:05:31;;;;;;;26.60;12.80;;;;;;;0.99;82.05;99518.72;5039736;28;20509;-78
2024/02/09 04:07:56;;;;;;;21.10;11.85;;;;;;;1.32;82.19;99544.03;5030631;28;20041;-78
2024/02/09 04:10:22;;;;;;;24.45;12.70;;;;;;;1.08;82.91;99532.63;5028857;28;20026;-78
2024/02/09 04:12:48;;;;;;;25.52;13.77;;;;;;;0.80;83.25;99504.22;5029043;28;20029;-78
2024/02/09 04:15:13;;;;;;;26.08;13.20;;;;;;;1.52;81.51;99513.72;5012685;28;20042;-78
2024/02/09 04:17:39;;;;;;;25.70;13.05;;;;;;;1.85;82.49;99538.97;5022727;28;20079;-78
2024/02/09 04:20:09;;;;;;;327.23;81.72;;;;;;;2.01;83.43;99539.66;5028554;28;20037;-78
2024/02/09 04:22:35;;;;;;;158.90;60.70;;;;;;;2.09;81.97;99530.09;5028670;28;20084;-77
2024/02/09 04:25:01;;;;;;;45.35;25.88;;;;;;;2.13;82.73;99562.94;5029100;28;20143;-77
2024/02/09 04:27:26;;;;;;;31.23;16.02;;;;;;;1.97;82.45;99554.16;5030051;28;20104;-78
2024/02/09 04:29:52;;;;;;;25.52;13.35;;;;;;;1.63;82.72;99536.16;5027466;28;20033;-78
2024/02/09 04:32:18;;;;;;;101.22;62.42;;;;;;;1.99;80.82;99560.06;5027974;28;20056;-78
2024/02/09 04:34:44;;;;;;;106.57;68.85;;;;;;;1.61;82.35;99543.38;5028273;28;20033;-77
2024/02/09 04:37:11;;;;;;;108.18;72.55;;;;;;;1.36;83.76;99529.56;5027923;28;20026;-78
2024/02/09 04:39:37;;;;;;;40.50;24.88;;;;;;;1.51;83.53;99564.66;5027444;28;20025;-78
2024/02/09 04:42:02;;;;;;;41.22;25.23;;;;;;;0.92;85.95;99543.19;5024620;28;20025;-77
2024/02/09 04:44:28;;;;;;;29.50;16.85;;;;;;;0.77;85.80;99546.53;5028207;28;20040;-77
2024/02/09 04:46:53;;;;;;;26.85;15.15;;;;;;;0.85;85.91;99571.94;5030754;28;20108;-78
2024/02/09 04:49:20;;;;;;;32.10;16.63;;;;;;;0.39;88.92;99537.59;5038419;28;20026;-80
2024/02/09 04:51:46;;;;;;;35.90;17.33;;;;;;;0.84;87.98;99561.59;5027793;28;20037;-79
2024/02/09 04:54:12;;;;;;;38.30;23.73;;;;;;;1.36;84.28;99553.22;5035028;28;20080;-79
2024/02/09 04:56:38;;;;;;;36.38;23.63;;;;;;;1.77;83.24;99555.63;5036050;28;20107;-79
2024/02/09 04:59:07;;;;;;;40.72;23.92;;;;;;;1.69;82.81;99558.28;5038556;28;20108;-79
2024/02/09 05:01:37;;;;;;;38.13;22.65;;;;;;;1.68;83.15;99580.34;5036777;28;20025;-79
2024/02/09 05:04:05;;;;;;;36.67;22.70;;;;;;;1.65;83.36;99565.69;5037571;28;20032;-79
2024/02/09 05:06:30;;;;;;;45.95;26.45;;;;;;;1.77;83.85;99568.75;5032649;28;20040;-78
2024/02/09 05:08:58;;;;;;;40.40;22.92;;;;;;;2.17;81.07;99564.22;5037134;28;20025;-78
2024/02/09 05:11:33;;;;;;;39.30;21.15;;;;;;;2.29;80.92;99568.06;5038084;28;20032;-79
2024/02/09 05:13:59;;;;;;;36.40;19.65;;;;;;;2.01;80.30;99539.66;5036337;28;20728;-78
2024/02/09 05:16:25;;;;;;;36.78;19.38;;;;;;;1.56;83.06;99564.13;5034908;28;20643;-79
2024/02/09 05:18:50;;;;;;;41.63;24.10;;;;;;;2.19;80.56;99589.34;5035054;28;20033;-79
2024/02/09 05:21:17;;;;;;;40.25;23.15;;;;;;;2.06;79.72;99586.47;5029076;28;20079;-78
2024/02/09 05:23:42;;;;;;;44.60;21.10;;;;;;;1.56;81.74;99593.84;5035819;28;20477;-78
2024/02/09 05:26:08;;;;;;;49.38;24.80;;;;;;;1.43;81.58;99585.72;5029198;28;20552;-79
2024/02/09 05:28:42;;;;;;;75.72;32.30;;;;;;;1.56;80.99;99567.56;5027525;28;20030;-78
2024/02/09 05:31:15;;;;;;;50.97;22.42;;;;;;;1.91;79.04;99607.44;5012297;28;20128;-78
2024/02/09 05:33:41;;;;;;;50.00;22.05;;;;;;;1.78;79.78;99601.97;5007695;28;20180;-78
2024/02/09 05:36:07;;;;;;;42.63;18.55;;;;;;;1.63;78.42;99583.47;5026059;28;20037;-78
2024/02/09 05:38:32;;;;;;;57.63;23.40;;;;;;;1.75;79.39;99612.81;5027458;28;20026;-78
2024/02/09 05:40:58;;;;;;;60.85;27.52;;;;;;;1.64;79.71;99581.66;5027620;28;20469;-78
2024/02/09 05:43:24;;;;;;;63.00;31.10;;;;;;;1.95;78.67;99607.94;5025876;28;20567;-79
2024/02/09 05:45:50;;;;;;;67.65;31.35;;;;;;;1.96;78.76;99617.44;5026411;28;20063;-79
2024/02/09 05:48:15;;;;;;;63.53;27.95;;;;;;;2.03;79.57;99622.84;5027183;28;20033;-78
2024/02/09 05:50:41;;;;;;;48.80;23.15;;;;;;;1.95;81.90;99614.00;5027488;28;20486;-79
2024/02/09 05:53:07;;;;;;;55.03;22.38;;;;;;;2.03;82.22;99614.97;5012476;28;20030;-79
2024/02/09 05:55:34;;;;;;;40.85;20.48;;;;;;;1.97;82.15;99590.97;5019646;28;20029;-79
2024/02/09 05:58:00;;;;;;;42.72;17.80;;;;;;;2.27;82.40;99625.31;5027969;28;20068;-79
2024/02/09 06:00:26;;;;;;;38.33;17.70;;;;;;;2.47;80.55;99627.44;5026898;28;20572;-78
2024/02/09 06:02:52;;;;;;;31.50;14.13;;;;;;;1.96;83.40;99604.28;5027325;28;20064;-79
2024/02/09 06:05:19;;;;;;;28.60;13.95;;;;;;;1.81;85.28;99614.75;5025807;28;20064;-78
2024/02/09 06:07:47;;;;;;;57.97;34.23;;;;;;;2.35;82.64;99622.63;5028233;28;20057;-79
2024/02/09 06:10:13;;;;;;;39.10;18.70;;;;;;;2.64;80.63;99639.50;5027032;28;20030;-78
2024/02/09 06:12:38;;;;;;;32.22;15.75;;;;;;;2.70;80.95;99644.06;5026917;28;20498;-79
2024/02/09 06:15:05;;;;;;;26.50;12.88;;;;;;;2.89;79.92;99626.09;5027217;28;20052;-79
2024/02/09 06:17:31;;;;;;;35.25;17.65;;;;;;;2.69;80.21;99605.53;5027630;28;20030;-79
2024/02/09 06:19:57;;;;;;;53.70;27.70;;;;;;;2.36;81.85;99600.56;5031288;28;20091;-79
2024/02/09 06:22:22;;;;;;;35.67;18.90;;;;;;;2.39;84.28;99620.44;5031470;28;20029;-79
2024/02/09 06:24:51;;;;;;;43.60;21.75;;;;;;;2.92;82.14;99652.06;5030900;28;20052;-79
2024/02/09 06:27:17;;;;;;;42.30;17.23;;;;;;;2.93;81.01;99638.72;5030808;28;20029;-79
2024/02/09 06:29:42;;;;;;;35.55;15.95;;;;;;;3.12;80.15;99642.66;5030642;28;20044;-79
2024/02/09 06:32:08;;;;;;;60.80;31.15;;;;;;;3.17;78.05;99640.31;5031458;28;20029;-79
2024/02/09 06:34:34;;;;;;;41.60;17.70;;;;;;;2.78;81.12;99646.59;5030727;28;20025;-80
2024/02/09 06:36:59;;;;;;;30.45;15.60;;;;;;;2.96;80.01;99611.19;5050528;28;20040;-79
2024/02/09 06:39:25;;;;;;;32.25;15.75;;;;;;;3.12;81.84;99653.19;5037966;28;20033;-79
2024/02/09 06:41:50;;;;;;;23.70;12.27;;;;;;;2.50;84.23;99608.69;5030423;28;20033;-79
2024/02/09 06:44:18;;;;;;;26.45;15.05;;;;;;;2.45;86.79;99642.59;5012639;28;20022;-79
2024/02/09 06:46:43;;;;;;;23.45;11.90;;;;;;;2.42;88.07;99651.66;5043418;28;20144;-79
2024/02/09 06:49:08;;;;;;;25.17;14.07;;;;;;;3.07;84.65;99629.22;5038751;28;20128;-79
2024/02/09 06:51:34;;;;;;;21.15;11.02;;;;;;;3.45;81.46;99644.91;5030783;28;20399;-79
2024/02/09 06:54:00;;;;;;;23.33;12.15;;;;;;;3.66;81.00;99653.91;5029355;28;20116;-79
2024/02/09 06:56:25;;;;;;;37.22;14.18;;;;;;;3.68;80.17;99609.69;5062430;28;20819;-79
2024/02/09 06:58:52;;;;;;;29.00;19.38;;;;;;;3.90;79.75;99621.13;5030771;28;20128;-78
2024/02/09 07:01:18;;;;;;;27.08;15.07;;;;;;;3.93;80.66;99621.56;5030689;28;20121;-79
2024/02/09 07:03:44;;;;;;;26.63;14.02;;;;;;;4.15;80.03;99614.50;5030660;28;20057;-79
2024/02/09 07:06:10;;;;;;;23.42;14.68;;;;;;;4.33;80.20;99629.91;5030060;28;20052;-79
2024/02/09 07:08:42;;;;;;;25.45;14.23;;;;;;;4.26;82.04;99647.47;5033154;28;20034;-79
2024/02/09 07:11:11;;;;;;;22.08;13.00;;;;;;;4.07;84.26;99640.19;5011027;28;20021;-78
2024/02/09 07:13:41;;;;;;;24.33;14.68;;;;;;;4.06;85.33;99628.00;5010747;28;20121;-79
2024/02/09 07:16:07;;;;;;;28.88;15.88;;;;;;;4.30;82.94;99614.44;5019419;28;20040;-78
2024/02/09 07:18:40;;;;;;;28.52;16.08;;;;;;;4.67;83.60;99619.63;5031054;28;20029;-79
2024/02/09 07:21:08;;;;;;;28.70;18.13;;;;;;;4.94;82.66;99616.16;5031635;28;20033;-79
2024/02/09 07:23:36;;;;;;;33.88;19.75;;;;;;;5.18;79.29;99617.50;5034747;28;20106;-79
2024/02/09 07:26:10;;;;;;;30.38;18.58;;;;;;;5.31;79.13;99626.53;5039587;28;20548;-79
2024/02/09 07:28:40;;;;;;;35.22;20.27;;;;;;;5.32;81.80;99646.69;5021745;28;20033;-79
2024/02/09 07:31:06;;;;;;;31.45;19.00;;;;;;;5.64;79.12;99622.22;5039521;28;20030;-79
2024/02/09 07:33:32;;;;;;;33.67;19.75;;;;;;;6.21;76.03;99636.06;5039530;28;20029;-77
2024/02/09 07:35:57;;;;;;;32.50;19.65;;;;;;;6.00;75.83;99594.66;5039646;28;20036;-77
2024/02/09 07:38:22;;;;;;;40.50;25.30;;;;;;;6.23;75.92;99627.91;5031073;28;20056;-77
2024/02/09 07:40:48;;;;;;;29.42;18.58;;;;;;;6.39;75.35;99608.19;5026691;28;20524;-77
2024/02/09 07:43:13;;;;;;;27.67;17.40;;;;;;;6.28;74.84;99596.34;5016644;28;20026;-77
2024/02/09 07:45:38;;;;;;;30.40;16.95;;;;;;;6.44;73.25;99580.06;5019008;28;20062;-78
2024/02/09 07:48:05;;;;;;;32.03;19.08;;;;;;;6.87;72.35;99612.47;5037200;28;20030;-78
2024/02/09 07:50:30;;;;;;;28.75;17.90;;;;;;;7.22;69.94;99603.22;5036945;28;20089;-78
2024/02/09 07:52:56;;;;;;;30.13;20.40;;;;;;;7.61;68.34;99584.72;5036504;28;20068;-78
2024/02/09 07:55:21;;;;;;;28.58;22.10;;;;;;;7.87;67.67;99594.38;5036601;28;20018;-78
2024/02/09 07:57:50;;;;;;;28.70;18.23;;;;;;;8.31;67.79;99613.91;5035364;28;20033;-77
2024/02/09 08:00:18;;;;;;;26.23;15.45;;;;;;;8.37;65.45;99583.03;5033002;28;20061;-78
2024/02/09 08:02:44;;;;;;;;;;;;;;;8.50;65.89;99608.72;5032494;28;20052;-79
2024/02/09 08:05:17;;;;;;;28.85;17.63;;;;;;;8.39;66.37;99608.34;5030877;28;20015;-78
2024/02/09 08:07:46;;;;;;;24.92;15.85;;;;;;;8.54;64.85;99591.31;5030703;28;20021;-77
2024/02/09 08:10:13;;;;;;;30.67;20.52;;;;;;;8.87;63.36;99582.22;5035687;28;20095;-78
2024/02/09 08:12:40;;;;;;;25.38;16.40;;;;;;;9.17;62.65;99604.41;5049823;28;20052;-78
2024/02/09 08:15:09;;;;;;;28.63;17.92;;;;;;;9.44;62.99;99590.84;5049379;28;20136;-77
2024/02/09 08:17:34;;;;;;;22.45;14.02;;;;;;;9.67;60.68;99587.47;5035191;28;20029;-78
2024/02/09 08:20:00;;;;;;;20.40;14.45;;;;;;;9.88;60.64;99596.81;5028809;28;20627;-78
2024/02/09 08:22:32;;;;;;;28.10;18.45;;;;;;;10.16;59.49;99608.75;5023581;28;20065;-78
2024/02/09 08:24:59;;;;;;;20.30;12.85;;;;;;;10.27;58.01;99602.63;5009055;28;20018;-78
2024/02/09 08:27:25;;;;;;;24.00;14.35;;;;;;;10.29;57.50;99594.41;5018941;28;20410;-78
2024/02/09 08:29:55;;;;;;;19.80;12.93;;;;;;;10.71;56.77;99613.88;5028849;28;20037;-78
2024/02/09 08:32:21;;;;;;;22.52;15.27;;;;;;;10.85;56.15;99612.59;5028672;28;20501;-78
2024/02/09 08:34:47;;;;;;;19.52;13.38;;;;;;;10.69;57.92;99605.28;5028426;28;20025;-78
2024/02/09 08:37:12;;;;;;;23.42;13.80;;;;;;;11.12;56.51;99605.97;5027364;28;20033;-77
2024/02/09 08:39:40;;;;;;;18.40;9.48;;;;;;;11.12;54.16;99592.63;5028275;28;20118;-78
2024/02/09 08:42:06;;;;;;;18.75;11.55;;;;;;;11.09;54.85;99571.75;5026426;28;20029;-78
2024/02/09 08:44:32;;;;;;;19.55;12.05;;;;;;;11.84;53.23;99594.88;5008276;28;20518;-78
2024/02/09 08:46:57;;;;;;;20.85;12.68;;;;;;;11.71;54.85;99589.81;5046358;28;20079;-78
2024/02/09 08:49:22;;;;;;;20.77;10.75;;;;;;;11.95;53.58;99602.09;5028397;28;20032;-79
2024/02/09 08:51:50;;;;;;;18.17;10.75;;;;;;;11.89;54.42;99587.00;5028011;28;20414;-78
2024/02/09 08:54:15;;;;;;;22.17;12.85;;;;;;;12.24;52.66;99594.84;5024378;28;20030;-77
2024/02/09 08:56:41;;;;;;;18.75;11.43;;;;;;;12.03;53.32;99580.31;5026053;28;20099;-78
2024/02/09 08:59:06;;;;;;;20.58;13.43;;;;;;;12.04;54.37;99571.22;5028118;28;20474;-78
2024/02/09 09:01:32;;;;;;;20.92;12.40;;;;;;;12.02;55.27;99570.66;5026502;28;20069;-78
2024/02/09 09:03:57;;;;;;;16.50;11.05;;;;;;;12.39;54.32;99572.09;5027860;28;20103;-78
2024/02/09 09:06:23;;;;;;;17.58;12.07;;;;;;;12.51;52.32;99553.28;5022681;28;20144;-78
2024/02/09 09:08:49;;;;;;;18.85;11.43;;;;;;;12.79;51.18;99573.75;5026747;28;20040;-78
2024/02/09 09:11:16;;;;;;;17.45;11.15;;;;;;;12.86;50.39;99591.25;5027650;28;20026;-78
2024/02/09 09:13:41;;;;;;;19.27;11.27;;;;;;;12.89;49.94;99568.53;5022461;28;20030;-79
2024/02/09 09:16:07;;;;;;;17.48;11.25;;;;;;;13.24;49.61;99576.28;5007095;28;20080;-78
2024/02/09 09:18:33;;;;;;;16.17;11.30;;;;;;;13.25;49.14;99566.34;5022715;28;20089;-79
2024/02/09 09:20:59;;;;;;;16.10;10.18;;;;;;;13.59;47.39;99585.81;5026354;28;20060;-78
2024/02/09 09:23:25;;;;;;;17.58;9.85;;;;;;;13.52;46.69;99576.34;5026290;28;20025;-79
2024/02/09 09:25:51;;;;;;;15.05;10.38;;;;;;;13.64;48.31;99580.50;5024977;28;20509;-78
2024/02/09 09:28:18;;;;;;;18.02;9.88;;;;;;;13.57;47.03;99582.59;5027583;28;20033;-78
2024/02/09 09:30:44;;;;;;;16.63;10.37;;;;;;;13.85;46.51;99570.84;5028901;28;20068;-78
2024/02/09 09:33:10;;;;;;;16.67;10.95;;;;;;;13.84;47.20;99557.69;5027421;28;20275;-78
2024/02/09 09:35:36;;;;;;;16.65;11.05;;;;;;;14.38;46.74;99556.81;5027720;28;20399;-78
2024/02/09 09:38:01;;;;;;;15.75;10.15;;;;;;;14.70;43.62;99569.44;5027599;28;20425;-78
2024/02/09 09:40:34;;;;;;;16.33;10.88;;;;;;;14.58;45.50;99556.19;5027033;28;20060;-78
2024/02/09 09:42:59;;;;;;;17.52;10.10;;;;;;;14.76;43.51;99561.16;5007813;28;20438;-78
2024/02/09 09:45:25;;;;;;;17.70;10.48;;;;;;;15.09;43.17;99572.63;5007102;28;20034;-78
2024/02/09 09:47:50;;;;;;;15.63;10.60;;;;;;;15.13;44.54;99557.59;5024743;28;20486;-78
2024/02/09 09:50:17;;;;;;;16.10;11.20;;;;;;;15.34;44.94;99549.63;5025841;28;20605;-78
2024/02/09 09:52:51;;;;;;;19.45;12.20;;;;;;;15.79;43.11;99548.19;5025953;28;20463;-77
2024/02/09 09:55:22;;;;;;;19.25;10.20;;;;;;;15.44;42.50;99539.72;5027228;28;20030;-78
2024/02/09 09:57:50;;;;;;;14.52;8.90;;;;;;;15.67;41.88;99554.59;5015004;28;20037;-78
2024/02/09 10:00:16;;;;;;;13.75;9.43;;;;;;;15.90;41.38;99544.44;5026829;28;20033;-78
2024/02/09 10:02:42;;;;;;;21.05;13.57;;;;;;;16.30;39.71;99547.44;5022325;28;20032;-78
2024/02/09 10:05:09;;;;;;;26.27;16.52;;;;;;;16.09;40.36;99530.47;5014826;28;20410;-78
2024/02/09 10:07:40;;;;;;;74.28;36.50;;;;;;;16.51;38.59;99557.13;5010030;28;20022;-78
2024/02/09 10:10:09;;;;;;;16.83;8.38;;;;;;;16.77;38.61;99547.09;5027034;28;20042;-78
2024/02/09 10:12:35;;;;;;;16.98;8.43;;;;;;;16.39;38.80;99527.00;5023023;28;20100;-78
2024/02/09 10:15:00;;;;;;;15.38;8.40;;;;;;;16.99;38.90;99521.78;5023237;28;20124;-78
2024/02/09 10:17:28;;;;;;;15.27;9.50;;;;;;;17.35;37.59;99524.34;5040403;28;20037;-78
2024/02/09 10:19:56;;;;;;;14.13;7.70;;;;;;;17.67;37.26;99497.72;5025483;28;20076;-78
2024/02/09 10:22:22;;;;;;;14.48;8.10;;;;;;;18.12;34.77;99504.97;5028995;28;20033;-79
2024/02/09 10:24:48;;;;;;;19.77;8.55;;;;;;;18.51;34.72;99499.53;5026494;28;20513;-78
2024/02/09 10:27:14;;;;;;;13.63;7.68;;;;;;;18.41;34.44;99488.81;5024302;28;20026;-78
2024/02/09 10:29:39;;;;;;;11.65;7.35;;;;;;;18.16;34.13;99487.13;5038431;28;20041;-78
2024/02/09 10:32:08;;;;;;;14.07;7.38;;;;;;;18.04;34.74;99480.22;5024929;28;20392;-78
2024/02/09 10:34:35;;;;;;;51.80;21.58;;;;;;;18.26;35.43;99487.03;5026703;28;20120;-78
2024/02/09 10:37:04;;;;;;;45.10;20.30;;;;;;;18.23;34.82;99457.94;5025493;28;20033;-78
2024/02/09 10:39:29;;;;;;;17.45;8.98;;;;;;;18.37;34.33;99482.34;5058616;28;20030;-78
2024/02/09 10:42:02;;;;;;;17.67;9.65;;;;;;;18.64;33.01;99476.44;5026458;28;20099;-78
2024/02/09 10:44:32;;;;;;;12.70;7.85;;;;;;;18.73;32.96;99477.38;5026755;28;20459;-78
2024/02/09 10:46:59;;;;;;;12.63;6.40;;;;;;;18.61;32.24;99463.47;5026571;28;20099;-77
2024/02/09 10:49:28;;;;;;;14.32;6.97;;;;;;;18.87;32.99;99459.44;5025217;28;20029;-78
2024/02/09 10:51:59;;;;;;;11.32;6.00;;;;;;;18.48;32.20;99459.56;5026852;28;20098;-78
2024/02/09 10:54:36;;;;;;;12.80;5.90;;;;;;;18.51;32.59;99447.38;5026272;28;20037;-79
2024/02/09 10:57:01;;;;;;;14.55;6.35;;;;;;;18.85;31.93;99448.09;5019418;28;20088;-78
2024/02/09 10:59:28;;;;;;;11.60;6.68;;;;;;;19.25;31.69;99432.47;5018623;28;20025;-79
2024/02/09 11:01:53;;;;;;;10.98;5.57;;;;;;;19.24;30.94;99441.66;5020098;28;20121;-78
2024/02/09 11:04:19;;;;;;;12.57;5.80;;;;;;;19.90;29.69;99420.16;5027614;28;20110;-79
2024/02/09 11:06:45;;;;;;;10.50;5.93;;;;;;;19.55;30.27;99422.28;5029664;28;20069;-78
2024/02/09 11:09:11;;;;;;;9.45;5.60;;;;;;;20.24;30.19;99419.81;5038356;28;20036;-79
2024/02/09 11:11:39;;;;;;;10.35;5.47;;;;;;;20.73;29.20;99401.28;5032262;28;20021;-78
2024/02/09 11:14:06;;;;;;;11.13;6.32;;;;;;;19.92;29.64;99404.44;5028370;28;20048;-78
2024/02/09 11:16:40;;;;;;;10.45;5.15;;;;;;;20.44;29.05;99393.47;5029325;28;20037;-79
2024/02/09 11:19:10;;;;;;;10.65;5.22;;;;;;;20.63;29.40;99390.66;5028707;28;20037;-78
2024/02/09 11:21:35;;;;;;;10.95;5.25;;;;;;;20.48;29.26;99375.50;5029648;28;20056;-78
2024/02/09 11:24:01;;;;;;;10.70;4.25;;;;;;;20.20;28.73;99380.09;5028411;28;20116;-78
2024/02/09 11:26:36;;;;;;;8.77;4.32;;;;;;;21.03;27.86;99363.81;5028594;28;20018;-78
2024/02/09 11:29:01;;;;;;;8.48;4.28;;;;;;;21.91;27.52;99357.13;5019392;28;20084;-78
2024/02/09 11:31:28;;;;;;;11.77;5.30;;;;;;;22.45;26.41;99383.09;5024456;28;20084;-78
2024/02/09 11:33:53;;;;;;;12.85;4.78;;;;;;;21.45;27.52;99369.91;5029063;28;20042;-78
2024/02/09 11:36:22;;;;;;;10.45;4.97;;;;;;;21.49;28.29;99359.25;5025218;28;20034;-78
2024/02/09 11:38:48;;;;;;;13.07;6.13;;;;;;;21.22;27.42;99353.59;5024351;28;20106;-79
2024/02/09 11:41:14;;;;;;;10.02;4.68;;;;;;;21.27;27.66;99344.56;5026079;28;20574;-78
2024/02/09 11:43:39;;;;;;;9.43;4.70;;;;;;;21.07;28.32;99362.09;5020846;28;20061;-77
2024/02/09 11:46:07;;;;;;;9.45;4.68;;;;;;;20.87;28.25;99338.94;5011335;28;20398;-77
2024/02/09 11:48:32;;;;;;;10.68;4.57;;;;;;;21.35;28.77;99348.41;5019642;28;20045;-79
2024/02/09 11:51:00;;;;;;;12.45;5.07;;;;;;;21.71;27.87;99372.00;5028965;28;20030;-78
2024/02/09 11:53:26;;;;;;;10.40;4.57;;;;;;;22.03;27.08;99360.06;5029518;28;20069;-78
2024/02/09 11:55:52;;;;;;;8.88;4.65;;;;;;;22.06;26.70;99359.41;5021949;28;20056;-78
2024/02/09 11:58:18;;;;;;;11.10;5.25;;;;;;;21.91;26.59;99341.63;5014241;28;20518;-77
2024/02/09 12:00:45;;;;;;;11.02;5.60;;;;;;;22.11;26.68;99334.03;5028922;28;20033;-77
2024/02/09 12:03:12;;;;;;;6.95;4.07;;;;;;;22.46;25.86;99352.09;5023926;28;20029;-78
2024/02/09 12:05:37;;;;;;;8.20;4.45;;;;;;;23.19;24.53;99329.81;5019870;28;20026;-78
2024/02/09 12:08:03;;;;;;;8.10;4.28;;;;;;;23.86;25.01;99328.44;5030577;28;20090;-78
2024/02/09 12:10:29;;;;;;;10.13;5.60;;;;;;;23.19;24.46;99316.22;5033711;28;20029;-79
2024/02/09 12:12:54;;;;;;;7.20;3.95;;;;;;;24.10;24.16;99323.53;5034266;28;20030;-78
2024/02/09 12:15:20;;;;;;;7.97;4.30;;;;;;;24.34;24.06;99315.56;5036300;28;20505;-78
2024/02/09 12:17:47;;;;;;;9.32;4.57;;;;;;;24.72;23.57;99317.44;5038613;28;20029;-78
2024/02/09 12:20:13;;;;;;;9.30;4.50;;;;;;;24.80;23.34;99297.47;5038463;28;20025;-77
2024/02/09 12:22:40;;;;;;;9.20;4.50;;;;;;;25.18;22.86;99295.75;5036415;28;20123;-78
2024/02/09 12:25:06;;;;;;;7.70;4.20;;;;;;;25.84;21.96;99322.19;5028495;28;20027;-77
2024/02/09 12:27:32;;;;;;;11.13;4.72;;;;;;;25.98;21.90;99309.06;5018220;28;20033;-78
2024/02/09 12:29:57;;;;;;;12.07;4.90;;;;;;;26.05;22.58;99312.03;5028115;28;20461;-77
2024/02/09 12:32:23;;;;;;;9.00;4.82;;;;;;;25.80;22.09;99297.50;5025992;28;20436;-78
2024/02/09 12:34:50;;;;;;;7.68;5.15;;;;;;;25.52;22.31;99283.72;5013378;28;20384;-78
2024/02/09 12:37:18;;;;;;;9.65;5.50;;;;;;;25.74;22.21;99295.34;5010799;28;20036;-78
2024/02/09 12:39:54;;;;;;;9.93;4.85;;;;;;;25.31;22.39;99272.03;5021555;28;20029;-78
2024/02/09 12:42:31;;;;;;;13.70;5.00;;;;;;;24.33;23.10;99267.63;5028423;28;20026;-77
2024/02/09 12:44:57;;;;;;;11.07;5.75;;;;;;;23.81;23.81;99267.91;5027631;28;20411;-77
2024/02/09 12:47:23;;;;;;;10.38;4.70;;;;;;;23.85;24.12;99271.59;5028013;28;20025;-77
2024/02/09 12:49:50;;;;;;;11.32;5.22;;;;;;;23.66;24.45;99274.69;5028236;28;20025;-77
2024/02/09 12:52:16;;;;;;;35.67;17.05;;;;;;;24.36;24.32;99255.28;5026787;28;20026;-77
2024/02/09 12:54:42;;;;;;;12.40;6.47;;;;;;;24.76;24.27;99272.00;5027644;28;20095;-77
2024/02/09 12:57:08;;;;;;;11.25;5.68;;;;;;;24.96;23.69;99261.44;5027712;28;20049;-77
2024/02/09 12:59:34;;;;;;;6.70;4.38;;;;;;;23.78;24.83;99266.66;5027535;28;20026;-78
2024/02/09 13:02:04;;;;;;;11.52;6.07;;;;;;;22.80;25.47;99241.84;5027515;28;20032;-78
2024/02/09 13:04:33;;;;;;;11.50;4.90;;;;;;;22.50;26.36;99250.94;5027281;28;20025;-76
2024/02/09 13:06:58;;;;;;;15.45;6.65;;;;;;;22.18;26.91;99236.63;5011261;28;20088;-77
2024/02/09 13:09:24;;;;;;;13.18;6.13;;;;;;;22.80;26.23;99247.28;5023935;28;20457;-77
2024/02/09 13:11:51;;;;;;;12.10;5.90;;;;;;;23.64;25.05;99239.63;5025978;28;20460;-78